Relevés horaires Gösgen (Suisse)


Relevés horaires à Gösgen - Dimanche 08 Juill. 2018
Heure UTC1 Température [°C] Vent [km/h] Hum. [%] Pres.4 [hPa] Visi. [Km] Nébu. [octa] Préc.5 [mm] Cond.
2m. Res. Ros. Dir.2 Vit. Moy. Raf.3
23:00 17.3 17.3 13.2 ESE 1.9 -- -- 77 1020.7 -- -- -- --
22:00 18.3 18.3 13.7 E 1.9 -- -- 75 1020.7 -- -- -- --
21:00 19.1 19.1 13.0 E 3.7 -- 22.2 68 1020.4(0.8/3h) -- -- -- --
20:00 21.5 21.5 11.2 N 7.4 -- -- 52 1019.6 -- -- -- --
19:00 22.7 22.7 11.2 N 1.9 -- -- 48 1019.1 -- -- -- --
18:00 25.2 25.2 10.2 NNO 9.3 -- 31.5 39 1018.6(-0.4/3h) -- -- 0/12h
--
17:00 25.9 25.9 11.4 NO 7.4 -- -- 40 1018.5 -- -- -- --
16:00 26.1 26.1 11.0 NNO 16.7 -- -- 39 1018.7 -- -- -- --
15:00 26.5 26.5 13.1 ONO 18.5 -- 31.5 44 1018.9(-0.3/3h) -- -- -- --
14:00 26.8 26.8 12.2 NO 16.7 -- -- 40 1018.9 -- -- -- --
13:00 27.0 27.0 12.8 NNO 13.0 -- -- 41 1019 -- -- -- --
12:00 25.8 25.8 15.3 NNO 11.1 -- 22.2 52 1019.3(-0.5/3h) -- -- 0/6h
--
11:00 25.1 25.1 13.8 NNO 13.0 -- -- 50 1019.6 -- -- -- --
10:00 24.4 24.4 15.4 NNE 9.3 -- -- 57 1019.8 -- -- -- --
09:00 23.1 23.1 15.2 ENE 5.6 -- 14.8 61 1020.2(-0.3/3h) -- -- -- --
08:00 21.5 21.5 15.0 ESE 5.6 -- -- 67 1020.6 -- -- -- --
07:00 19.4 19.4 15.2 SE 3.7 -- -- 77 1021.1 -- -- -- --
06:00 16.5 16.5 14.5 SE 3.7 -- 5.6 88 1021.6(0.7/3h) -- -- 0/12h
0/24h
--
05:00 14.8 14.8 13.8 NNO 0.0 -- -- 94 1021.8 -- -- -- --
04:00 14.2 14.2 13.4 NNO 0.0 -- -- 95 1021.7 -- -- -- --
03:00 14.1 14.1 13.2 ESE 0.0 -- 3.7 94 1021.3(-0.6/3h) -- -- -- --
02:00 14.4 14.4 13.6 NNO 0.0 -- -- 95 1021.5 -- -- -- --
01:00 15.1 15.1 14.5 NNO 0.0 -- -- 96 1021.6 -- -- -- --
00:00 15.4 15.4 14.2 S 0.0 -- 3.7 93 1021.7(-0.2/3h) -- -- 0/6h
--

1 Coordinated Universal Time. Actuellement il est 08:00 locale et 07:00 UTC.

2 Le vent souffle depuis la direction indiquée vers la direction oposée.

3 Les rafales max. sont disponible 40 min après l'heure du relevé.

4 Pour les stations d'altitude (plus de 600m) le géopotentiel du niveau le plus proche de la pression obligatoire est indiqué.

5 Les stations disposant d'un diffuseur peuvent indiquer "trace". Cela signifie que des précipitations ont touchés le sol mais que la quantité est inférieure à 0.1 mm.

Récapitulatif de la journée
Température [°C] Vent [km/h] Ensoleillement4 [h] Precipitations totale5 [mm] Pression [Hpa]
Min1 Max.2 Moy.3 Max. Min Max.
13.7 27.2 0 31.5 13 h 30 min 0 1018.5 1021.8

1 Température minimale relevée entre 18:00 UTC la veille et 18:00 UTC le jour donné.

2 Température maximale relevée entre 06:00 UTC le jour donné et 06:00 UTC le lendemain.

3 Vent moyen de la journée basé sur les relevés horaires.

4 Ensoleillement en heures relevé entre 06:00 UTC la veille et 06:00 UTC le jour donné.

5 Précipitations totales tombées entre 06:00 UTC la jour donné et 06:00 UTC le lendemain.

Graphiques horaires